sensor_id;sensor_type;location;lat;lon;timestamp;temperature;humidity
22738;DHT22;11536;50.860;4.286;2023-06-22T00:00:46;21.90;99.90
22738;DHT22;11536;50.860;4.286;2023-06-22T00:03:12;21.90;99.90
22738;DHT22;11536;50.860;4.286;2023-06-22T00:05:38;21.90;99.90
22738;DHT22;11536;50.860;4.286;2023-06-22T00:08:03;21.90;99.90
22738;DHT22;11536;50.860;4.286;2023-06-22T00:10:32;21.90;99.90
22738;DHT22;11536;50.860;4.286;2023-06-22T00:12:58;21.90;99.90
22738;DHT22;11536;50.860;4.286;2023-06-22T00:15:23;21.90;99.90
22738;DHT22;11536;50.860;4.286;2023-06-22T00:17:49;21.90;99.90
22738;DHT22;11536;50.860;4.286;2023-06-22T00:20:15;21.90;99.90
22738;DHT22;11536;50.860;4.286;2023-06-22T00:22:42;21.90;99.90
22738;DHT22;11536;50.860;4.286;2023-06-22T00:25:08;21.90;99.90
22738;DHT22;11536;50.860;4.286;2023-06-22T00:27:35;21.90;99.90
22738;DHT22;11536;50.860;4.286;2023-06-22T00:30:00;21.90;99.90
22738;DHT22;11536;50.860;4.286;2023-06-22T00:32:26;21.90;99.90
22738;DHT22;11536;50.860;4.286;2023-06-22T00:34:51;21.90;99.90
22738;DHT22;11536;50.860;4.286;2023-06-22T00:37:18;21.80;99.90
22738;DHT22;11536;50.860;4.286;2023-06-22T00:39:43;21.80;99.90
22738;DHT22;11536;50.860;4.286;2023-06-22T00:42:09;21.80;99.90
22738;DHT22;11536;50.860;4.286;2023-06-22T00:44:35;21.80;99.90
22738;DHT22;11536;50.860;4.286;2023-06-22T00:47:02;21.80;99.90
22738;DHT22;11536;50.860;4.286;2023-06-22T00:49:28;21.80;99.90
22738;DHT22;11536;50.860;4.286;2023-06-22T00:51:54;21.70;99.90
22738;DHT22;11536;50.860;4.286;2023-06-22T00:54:20;21.70;99.90
22738;DHT22;11536;50.860;4.286;2023-06-22T00:56:55;21.70;99.90
22738;DHT22;11536;50.860;4.286;2023-06-22T00:59:23;21.70;99.90
22738;DHT22;11536;50.860;4.286;2023-06-22T01:01:49;21.60;99.90
22738;DHT22;11536;50.860;4.286;2023-06-22T01:04:15;21.70;99.90
22738;DHT22;11536;50.860;4.286;2023-06-22T01:07:16;21.70;99.90
22738;DHT22;11536;50.860;4.286;2023-06-22T01:10:07;21.70;99.90
22738;DHT22;11536;50.860;4.286;2023-06-22T01:12:40;21.70;99.90
22738;DHT22;11536;50.860;4.286;2023-06-22T01:15:13;21.60;99.90
22738;DHT22;11536;50.860;4.286;2023-06-22T01:17:41;21.60;99.90
22738;DHT22;11536;50.860;4.286;2023-06-22T01:20:09;21.60;99.90
22738;DHT22;11536;50.860;4.286;2023-06-22T01:22:50;21.60;99.90
22738;DHT22;11536;50.860;4.286;2023-06-22T01:25:32;21.60;99.90
22738;DHT22;11536;50.860;4.286;2023-06-22T01:30:28;21.50;99.90
22738;DHT22;11536;50.860;4.286;2023-06-22T01:32:58;21.60;99.90
22738;DHT22;11536;50.860;4.286;2023-06-22T01:35:24;21.50;99.90
22738;DHT22;11536;50.860;4.286;2023-06-22T01:37:50;21.50;99.90
22738;DHT22;11536;50.860;4.286;2023-06-22T01:40:16;21.50;99.90
22738;DHT22;11536;50.860;4.286;2023-06-22T01:42:43;21.50;99.90
22738;DHT22;11536;50.860;4.286;2023-06-22T01:45:10;21.50;99.90
22738;DHT22;11536;50.860;4.286;2023-06-22T01:47:36;21.50;99.90
22738;DHT22;11536;50.860;4.286;2023-06-22T01:50:03;21.50;99.90
22738;DHT22;11536;50.860;4.286;2023-06-22T01:52:29;21.40;99.90
22738;DHT22;11536;50.860;4.286;2023-06-22T01:54:54;21.40;99.90
22738;DHT22;11536;50.860;4.286;2023-06-22T01:57:20;21.40;99.90
22738;DHT22;11536;50.860;4.286;2023-06-22T02:00:17;21.40;99.90
22738;DHT22;11536;50.860;4.286;2023-06-22T02:02:54;21.40;99.90
22738;DHT22;11536;50.860;4.286;2023-06-22T02:05:23;21.40;99.90
22738;DHT22;11536;50.860;4.286;2023-06-22T02:08:00;21.40;99.90
22738;DHT22;11536;50.860;4.286;2023-06-22T02:10:28;21.30;99.90
22738;DHT22;11536;50.860;4.286;2023-06-22T02:12:54;21.30;99.90
22738;DHT22;11536;50.860;4.286;2023-06-22T02:15:21;21.30;99.90
22738;DHT22;11536;50.860;4.286;2023-06-22T02:17:47;21.20;99.90
22738;DHT22;11536;50.860;4.286;2023-06-22T02:20:14;21.30;99.90
22738;DHT22;11536;50.860;4.286;2023-06-22T02:22:40;21.20;99.90
22738;DHT22;11536;50.860;4.286;2023-06-22T02:25:06;21.20;99.90
22738;DHT22;11536;50.860;4.286;2023-06-22T02:27:32;21.20;99.90
22738;DHT22;11536;50.860;4.286;2023-06-22T02:29:57;21.20;99.90
22738;DHT22;11536;50.860;4.286;2023-06-22T02:32:23;21.10;99.90
22738;DHT22;11536;50.860;4.286;2023-06-22T02:34:49;21.10;99.90
22738;DHT22;11536;50.860;4.286;2023-06-22T02:37:14;21.10;99.90
22738;DHT22;11536;50.860;4.286;2023-06-22T02:39:40;21.10;99.90
22738;DHT22;11536;50.860;4.286;2023-06-22T02:42:06;21.10;99.90
22738;DHT22;11536;50.860;4.286;2023-06-22T02:44:32;21.10;99.90
22738;DHT22;11536;50.860;4.286;2023-06-22T02:46:58;21.10;99.90
22738;DHT22;11536;50.860;4.286;2023-06-22T02:49:24;21.10;99.90
22738;DHT22;11536;50.860;4.286;2023-06-22T02:51:50;21.10;99.90
22738;DHT22;11536;50.860;4.286;2023-06-22T02:54:16;21.10;99.90
22738;DHT22;11536;50.860;4.286;2023-06-22T02:56:42;21.10;99.90
22738;DHT22;11536;50.860;4.286;2023-06-22T02:59:11;21.10;99.90
22738;DHT22;11536;50.860;4.286;2023-06-22T03:01:37;21.10;99.90
22738;DHT22;11536;50.860;4.286;2023-06-22T03:04:09;21.10;99.90
22738;DHT22;11536;50.860;4.286;2023-06-22T03:06:35;21.10;99.90
22738;DHT22;11536;50.860;4.286;2023-06-22T03:09:03;21.00;99.90
22738;DHT22;11536;50.860;4.286;2023-06-22T03:11:32;21.00;99.90
22738;DHT22;11536;50.860;4.286;2023-06-22T03:13:59;21.00;99.90
22738;DHT22;11536;50.860;4.286;2023-06-22T03:16:25;21.00;99.90
22738;DHT22;11536;50.860;4.286;2023-06-22T03:18:51;21.00;99.90
22738;DHT22;11536;50.860;4.286;2023-06-22T03:21:17;21.00;99.90
22738;DHT22;11536;50.860;4.286;2023-06-22T03:23:43;21.00;99.90
22738;DHT22;11536;50.860;4.286;2023-06-22T03:26:09;21.00;99.90
22738;DHT22;11536;50.860;4.286;2023-06-22T03:28:35;21.00;99.90
22738;DHT22;11536;50.860;4.286;2023-06-22T03:31:00;21.00;99.90
22738;DHT22;11536;50.860;4.286;2023-06-22T03:33:26;21.00;99.90
22738;DHT22;11536;50.860;4.286;2023-06-22T03:35:51;21.00;99.90
22738;DHT22;11536;50.860;4.286;2023-06-22T03:38:17;21.00;99.90
22738;DHT22;11536;50.860;4.286;2023-06-22T03:40:43;21.00;99.90
22738;DHT22;11536;50.860;4.286;2023-06-22T03:43:09;21.00;99.90
22738;DHT22;11536;50.860;4.286;2023-06-22T03:45:34;21.00;99.90
22738;DHT22;11536;50.860;4.286;2023-06-22T03:48:00;20.90;99.90
22738;DHT22;11536;50.860;4.286;2023-06-22T03:50:26;20.90;99.90
22738;DHT22;11536;50.860;4.286;2023-06-22T03:52:52;20.90;99.90
22738;DHT22;11536;50.860;4.286;2023-06-22T03:55:20;20.90;99.90
22738;DHT22;11536;50.860;4.286;2023-06-22T03:57:45;20.90;99.90
22738;DHT22;11536;50.860;4.286;2023-06-22T04:00:11;20.90;99.90
22738;DHT22;11536;50.860;4.286;2023-06-22T04:02:37;20.80;99.90
22738;DHT22;11536;50.860;4.286;2023-06-22T04:05:04;20.80;99.90
22738;DHT22;11536;50.860;4.286;2023-06-22T04:07:29;20.80;99.90
22738;DHT22;11536;50.860;4.286;2023-06-22T04:09:55;20.80;99.90
22738;DHT22;11536;50.860;4.286;2023-06-22T04:12:20;20.80;99.90
22738;DHT22;11536;50.860;4.286;2023-06-22T04:14:46;20.80;99.90
22738;DHT22;11536;50.860;4.286;2023-06-22T04:17:11;20.80;99.90
22738;DHT22;11536;50.860;4.286;2023-06-22T04:19:39;20.80;99.90
22738;DHT22;11536;50.860;4.286;2023-06-22T04:22:05;20.80;99.90
22738;DHT22;11536;50.860;4.286;2023-06-22T04:24:33;20.80;99.90
22738;DHT22;11536;50.860;4.286;2023-06-22T04:26:58;20.90;99.90
22738;DHT22;11536;50.860;4.286;2023-06-22T04:29:26;20.90;99.90
22738;DHT22;11536;50.860;4.286;2023-06-22T04:31:54;20.90;99.90
22738;DHT22;11536;50.860;4.286;2023-06-22T04:34:21;20.90;99.90
22738;DHT22;11536;50.860;4.286;2023-06-22T04:36:46;20.90;99.90
22738;DHT22;11536;50.860;4.286;2023-06-22T04:39:12;21.00;99.90
22738;DHT22;11536;50.860;4.286;2023-06-22T04:41:39;21.00;99.90
22738;DHT22;11536;50.860;4.286;2023-06-22T04:44:11;21.00;99.90
22738;DHT22;11536;50.860;4.286;2023-06-22T04:46:37;21.00;99.90
22738;DHT22;11536;50.860;4.286;2023-06-22T04:49:09;21.00;99.90
22738;DHT22;11536;50.860;4.286;2023-06-22T04:51:42;21.00;99.90
22738;DHT22;11536;50.860;4.286;2023-06-22T04:54:08;21.10;99.90
22738;DHT22;11536;50.860;4.286;2023-06-22T04:56:34;21.10;99.90
22738;DHT22;11536;50.860;4.286;2023-06-22T04:59:01;21.10;99.90
22738;DHT22;11536;50.860;4.286;2023-06-22T05:01:26;21.10;99.90
22738;DHT22;11536;50.860;4.286;2023-06-22T05:03:52;21.10;99.90
22738;DHT22;11536;50.860;4.286;2023-06-22T05:06:22;21.10;99.90
22738;DHT22;11536;50.860;4.286;2023-06-22T05:08:55;21.10;99.90
22738;DHT22;11536;50.860;4.286;2023-06-22T05:11:25;21.10;99.90
22738;DHT22;11536;50.860;4.286;2023-06-22T05:13:51;21.10;99.90
22738;DHT22;11536;50.860;4.286;2023-06-22T05:16:16;21.10;99.90
22738;DHT22;11536;50.860;4.286;2023-06-22T05:18:42;21.20;99.90
22738;DHT22;11536;50.860;4.286;2023-06-22T05:21:09;21.10;99.90
22738;DHT22;11536;50.860;4.286;2023-06-22T05:23:37;21.10;99.90
22738;DHT22;11536;50.860;4.286;2023-06-22T05:26:03;21.20;99.90
22738;DHT22;11536;50.860;4.286;2023-06-22T05:28:28;21.20;99.90
22738;DHT22;11536;50.860;4.286;2023-06-22T05:30:54;21.20;99.90
22738;DHT22;11536;50.860;4.286;2023-06-22T05:33:20;21.20;99.90
22738;DHT22;11536;50.860;4.286;2023-06-22T05:35:46;21.10;99.90
22738;DHT22;11536;50.860;4.286;2023-06-22T05:38:12;21.10;99.90
22738;DHT22;11536;50.860;4.286;2023-06-22T05:40:38;21.10;99.90
22738;DHT22;11536;50.860;4.286;2023-06-22T05:43:03;21.10;99.90
22738;DHT22;11536;50.860;4.286;2023-06-22T05:45:30;21.10;99.90
22738;DHT22;11536;50.860;4.286;2023-06-22T05:47:55;21.00;99.90
22738;DHT22;11536;50.860;4.286;2023-06-22T05:50:21;21.10;99.90
22738;DHT22;11536;50.860;4.286;2023-06-22T05:52:46;21.10;99.90
22738;DHT22;11536;50.860;4.286;2023-06-22T05:55:12;21.10;99.90
22738;DHT22;11536;50.860;4.286;2023-06-22T05:57:38;21.10;99.90
22738;DHT22;11536;50.860;4.286;2023-06-22T06:00:03;21.10;99.90
22738;DHT22;11536;50.860;4.286;2023-06-22T06:02:33;21.10;99.90
22738;DHT22;11536;50.860;4.286;2023-06-22T06:04:59;21.10;99.90
22738;DHT22;11536;50.860;4.286;2023-06-22T06:07:25;21.10;99.90
22738;DHT22;11536;50.860;4.286;2023-06-22T06:09:51;21.10;99.90
22738;DHT22;11536;50.860;4.286;2023-06-22T06:12:16;21.10;99.90
22738;DHT22;11536;50.860;4.286;2023-06-22T06:14:42;21.00;99.90
22738;DHT22;11536;50.860;4.286;2023-06-22T06:17:07;21.00;99.90
22738;DHT22;11536;50.860;4.286;2023-06-22T06:19:33;21.00;99.90
22738;DHT22;11536;50.860;4.286;2023-06-22T06:21:58;21.00;99.90
22738;DHT22;11536;50.860;4.286;2023-06-22T06:24:24;21.00;99.90
22738;DHT22;11536;50.860;4.286;2023-06-22T06:26:50;21.00;99.90
22738;DHT22;11536;50.860;4.286;2023-06-22T06:29:15;21.00;99.90
22738;DHT22;11536;50.860;4.286;2023-06-22T06:31:41;21.00;99.90
22738;DHT22;11536;50.860;4.286;2023-06-22T06:34:07;21.00;99.90
22738;DHT22;11536;50.860;4.286;2023-06-22T06:36:33;21.00;99.90
22738;DHT22;11536;50.860;4.286;2023-06-22T06:38:58;21.00;99.90
22738;DHT22;11536;50.860;4.286;2023-06-22T06:41:24;21.00;99.90
22738;DHT22;11536;50.860;4.286;2023-06-22T06:43:49;21.10;99.90
22738;DHT22;11536;50.860;4.286;2023-06-22T06:46:15;21.10;99.90
22738;DHT22;11536;50.860;4.286;2023-06-22T06:48:41;21.10;99.90
22738;DHT22;11536;50.860;4.286;2023-06-22T06:51:06;21.10;99.90
22738;DHT22;11536;50.860;4.286;2023-06-22T06:53:35;21.20;99.90
22738;DHT22;11536;50.860;4.286;2023-06-22T06:56:01;21.20;99.90
22738;DHT22;11536;50.860;4.286;2023-06-22T06:58:26;21.20;99.90
22738;DHT22;11536;50.860;4.286;2023-06-22T07:00:52;21.20;99.90
22738;DHT22;11536;50.860;4.286;2023-06-22T07:03:17;21.30;99.90
22738;DHT22;11536;50.860;4.286;2023-06-22T07:05:43;21.20;99.90
22738;DHT22;11536;50.860;4.286;2023-06-22T07:08:08;21.30;99.90
22738;DHT22;11536;50.860;4.286;2023-06-22T07:10:34;21.30;99.90
22738;DHT22;11536;50.860;4.286;2023-06-22T07:13:00;21.30;99.90
22738;DHT22;11536;50.860;4.286;2023-06-22T07:15:25;21.30;99.90
22738;DHT22;11536;50.860;4.286;2023-06-22T07:17:51;21.30;99.90
22738;DHT22;11536;50.860;4.286;2023-06-22T07:20:16;21.30;99.90
22738;DHT22;11536;50.860;4.286;2023-06-22T07:22:43;21.40;99.90
22738;DHT22;11536;50.860;4.286;2023-06-22T07:25:10;21.40;99.90
22738;DHT22;11536;50.860;4.286;2023-06-22T07:27:43;21.40;99.90
22738;DHT22;11536;50.860;4.286;2023-06-22T07:30:09;21.40;99.90
22738;DHT22;11536;50.860;4.286;2023-06-22T07:32:35;21.40;99.90
22738;DHT22;11536;50.860;4.286;2023-06-22T07:35:01;21.40;99.90
22738;DHT22;11536;50.860;4.286;2023-06-22T07:37:28;21.50;99.90
22738;DHT22;11536;50.860;4.286;2023-06-22T07:39:54;21.50;99.90
22738;DHT22;11536;50.860;4.286;2023-06-22T07:42:24;21.50;99.90
22738;DHT22;11536;50.860;4.286;2023-06-22T07:44:50;21.60;99.90
22738;DHT22;11536;50.860;4.286;2023-06-22T07:47:18;21.60;99.90
22738;DHT22;11536;50.860;4.286;2023-06-22T07:49:47;21.60;99.90
22738;DHT22;11536;50.860;4.286;2023-06-22T07:52:13;21.60;99.90
22738;DHT22;11536;50.860;4.286;2023-06-22T07:54:38;21.60;99.90
22738;DHT22;11536;50.860;4.286;2023-06-22T07:57:04;21.70;99.90
22738;DHT22;11536;50.860;4.286;2023-06-22T07:59:30;21.70;99.90
22738;DHT22;11536;50.860;4.286;2023-06-22T08:01:55;21.70;99.90
22738;DHT22;11536;50.860;4.286;2023-06-22T08:04:21;21.70;99.90
22738;DHT22;11536;50.860;4.286;2023-06-22T08:06:47;21.70;99.90
22738;DHT22;11536;50.860;4.286;2023-06-22T08:09:12;21.70;99.90
22738;DHT22;11536;50.860;4.286;2023-06-22T08:11:38;21.70;99.90
22738;DHT22;11536;50.860;4.286;2023-06-22T08:14:03;21.70;99.90
22738;DHT22;11536;50.860;4.286;2023-06-22T08:16:29;21.70;99.90
22738;DHT22;11536;50.860;4.286;2023-06-22T08:18:55;21.80;99.90
22738;DHT22;11536;50.860;4.286;2023-06-22T08:21:20;21.80;99.90
22738;DHT22;11536;50.860;4.286;2023-06-22T08:23:46;21.80;99.90
22738;DHT22;11536;50.860;4.286;2023-06-22T08:26:11;21.80;99.90
22738;DHT22;11536;50.860;4.286;2023-06-22T08:28:37;21.80;99.90
22738;DHT22;11536;50.860;4.286;2023-06-22T08:31:03;21.80;99.90
22738;DHT22;11536;50.860;4.286;2023-06-22T08:33:29;21.90;99.90
22738;DHT22;11536;50.860;4.286;2023-06-22T08:35:56;21.80;99.90
22738;DHT22;11536;50.860;4.286;2023-06-22T08:38:22;21.80;99.90
22738;DHT22;11536;50.860;4.286;2023-06-22T08:40:47;21.80;99.90
22738;DHT22;11536;50.860;4.286;2023-06-22T08:43:14;21.80;99.90
22738;DHT22;11536;50.860;4.286;2023-06-22T08:45:39;21.80;99.90
22738;DHT22;11536;50.860;4.286;2023-06-22T08:48:05;21.80;99.90
22738;DHT22;11536;50.860;4.286;2023-06-22T08:50:31;21.80;99.90
22738;DHT22;11536;50.860;4.286;2023-06-22T08:52:56;21.70;99.90
22738;DHT22;11536;50.860;4.286;2023-06-22T08:55:22;21.80;99.90
22738;DHT22;11536;50.860;4.286;2023-06-22T08:57:48;21.70;99.90
22738;DHT22;11536;50.860;4.286;2023-06-22T09:00:14;21.80;99.90
22738;DHT22;11536;50.860;4.286;2023-06-22T09:02:45;21.70;99.90
22738;DHT22;11536;50.860;4.286;2023-06-22T09:05:10;21.70;99.90
22738;DHT22;11536;50.860;4.286;2023-06-22T09:07:36;21.70;99.90
22738;DHT22;11536;50.860;4.286;2023-06-22T09:10:02;21.70;99.90
22738;DHT22;11536;50.860;4.286;2023-06-22T09:12:30;21.70;99.90
22738;DHT22;11536;50.860;4.286;2023-06-22T09:14:56;21.70;99.90
22738;DHT22;11536;50.860;4.286;2023-06-22T09:17:22;21.80;99.90
22738;DHT22;11536;50.860;4.286;2023-06-22T09:19:48;21.70;99.90
22738;DHT22;11536;50.860;4.286;2023-06-22T09:22:14;21.70;99.90
22738;DHT22;11536;50.860;4.286;2023-06-22T09:24:40;21.80;99.90
22738;DHT22;11536;50.860;4.286;2023-06-22T09:27:05;21.70;99.90
22738;DHT22;11536;50.860;4.286;2023-06-22T09:29:31;21.80;99.90
22738;DHT22;11536;50.860;4.286;2023-06-22T09:31:59;21.80;99.90
22738;DHT22;11536;50.860;4.286;2023-06-22T09:34:25;21.80;99.90
22738;DHT22;11536;50.860;4.286;2023-06-22T09:36:50;21.80;99.90
22738;DHT22;11536;50.860;4.286;2023-06-22T09:39:18;21.80;99.90
22738;DHT22;11536;50.860;4.286;2023-06-22T09:41:44;21.80;99.90
22738;DHT22;11536;50.860;4.286;2023-06-22T09:44:09;21.80;99.90
22738;DHT22;11536;50.860;4.286;2023-06-22T09:46:35;21.80;99.90
22738;DHT22;11536;50.860;4.286;2023-06-22T09:49:00;21.80;99.90
22738;DHT22;11536;50.860;4.286;2023-06-22T09:51:26;21.70;99.90
22738;DHT22;11536;50.860;4.286;2023-06-22T09:53:52;21.70;99.90
22738;DHT22;11536;50.860;4.286;2023-06-22T09:56:19;21.70;99.90
22738;DHT22;11536;50.860;4.286;2023-06-22T09:58:46;21.70;99.90
22738;DHT22;11536;50.860;4.286;2023-06-22T10:01:12;21.60;99.90
22738;DHT22;11536;50.860;4.286;2023-06-22T10:03:40;21.50;99.90
22738;DHT22;11536;50.860;4.286;2023-06-22T10:06:07;21.40;99.90
22738;DHT22;11536;50.860;4.286;2023-06-22T10:08:33;21.30;99.90
22738;DHT22;11536;50.860;4.286;2023-06-22T10:10:59;21.30;99.90
22738;DHT22;11536;50.860;4.286;2023-06-22T10:13:24;21.20;99.90
22738;DHT22;11536;50.860;4.286;2023-06-22T10:15:50;21.10;99.90
22738;DHT22;11536;50.860;4.286;2023-06-22T10:18:17;21.10;99.90
22738;DHT22;11536;50.860;4.286;2023-06-22T10:20:44;21.00;99.90
22738;DHT22;11536;50.860;4.286;2023-06-22T10:23:10;20.90;99.90
22738;DHT22;11536;50.860;4.286;2023-06-22T10:25:35;20.80;99.90
22738;DHT22;11536;50.860;4.286;2023-06-22T10:28:01;20.60;99.90
22738;DHT22;11536;50.860;4.286;2023-06-22T10:30:27;20.50;99.90
22738;DHT22;11536;50.860;4.286;2023-06-22T10:32:54;20.40;99.90
22738;DHT22;11536;50.860;4.286;2023-06-22T10:35:19;20.30;99.90
22738;DHT22;11536;50.860;4.286;2023-06-22T10:37:46;20.30;99.90
22738;DHT22;11536;50.860;4.286;2023-06-22T10:40:13;20.30;99.90
22738;DHT22;11536;50.860;4.286;2023-06-22T10:42:40;20.20;99.90
22738;DHT22;11536;50.860;4.286;2023-06-22T10:45:06;20.20;99.90
22738;DHT22;11536;50.860;4.286;2023-06-22T10:47:32;20.10;99.90
22738;DHT22;11536;50.860;4.286;2023-06-22T10:49:58;20.00;99.90
22738;DHT22;11536;50.860;4.286;2023-06-22T10:52:23;20.00;99.90
22738;DHT22;11536;50.860;4.286;2023-06-22T10:54:49;20.00;99.90
22738;DHT22;11536;50.860;4.286;2023-06-22T10:57:14;19.90;99.90
22738;DHT22;11536;50.860;4.286;2023-06-22T10:59:40;19.90;99.90
22738;DHT22;11536;50.860;4.286;2023-06-22T11:02:06;19.90;99.90
22738;DHT22;11536;50.860;4.286;2023-06-22T11:04:32;19.90;99.90
22738;DHT22;11536;50.860;4.286;2023-06-22T11:06:57;19.90;99.90
22738;DHT22;11536;50.860;4.286;2023-06-22T11:09:23;19.80;99.90
22738;DHT22;11536;50.860;4.286;2023-06-22T11:11:50;19.80;99.90
22738;DHT22;11536;50.860;4.286;2023-06-22T11:14:18;19.80;99.90
22738;DHT22;11536;50.860;4.286;2023-06-22T11:16:44;19.80;99.90
22738;DHT22;11536;50.860;4.286;2023-06-22T11:19:09;19.90;99.90
22738;DHT22;11536;50.860;4.286;2023-06-22T11:21:35;19.90;99.90
22738;DHT22;11536;50.860;4.286;2023-06-22T11:24:01;19.80;99.90
22738;DHT22;11536;50.860;4.286;2023-06-22T11:26:26;19.80;99.90
22738;DHT22;11536;50.860;4.286;2023-06-22T11:28:55;19.80;99.90
22738;DHT22;11536;50.860;4.286;2023-06-22T11:31:21;19.80;99.90
22738;DHT22;11536;50.860;4.286;2023-06-22T11:33:46;19.80;99.90
22738;DHT22;11536;50.860;4.286;2023-06-22T11:36:13;19.80;99.90
22738;DHT22;11536;50.860;4.286;2023-06-22T11:38:39;19.80;99.90
22738;DHT22;11536;50.860;4.286;2023-06-22T11:41:06;19.80;99.90
22738;DHT22;11536;50.860;4.286;2023-06-22T11:43:32;19.80;99.90
22738;DHT22;11536;50.860;4.286;2023-06-22T11:45:58;19.80;99.90
22738;DHT22;11536;50.860;4.286;2023-06-22T11:48:26;19.70;99.90
22738;DHT22;11536;50.860;4.286;2023-06-22T11:50:52;19.70;99.90
22738;DHT22;11536;50.860;4.286;2023-06-22T11:53:17;19.70;99.90
22738;DHT22;11536;50.860;4.286;2023-06-22T11:55:44;19.70;99.90
22738;DHT22;11536;50.860;4.286;2023-06-22T11:58:10;19.70;99.90
22738;DHT22;11536;50.860;4.286;2023-06-22T12:00:37;19.70;99.90
22738;DHT22;11536;50.860;4.286;2023-06-22T12:03:03;19.70;99.90
22738;DHT22;11536;50.860;4.286;2023-06-22T12:05:30;19.70;99.90
22738;DHT22;11536;50.860;4.286;2023-06-22T12:07:55;19.70;99.90
22738;DHT22;11536;50.860;4.286;2023-06-22T12:10:22;19.60;99.90
22738;DHT22;11536;50.860;4.286;2023-06-22T12:12:48;19.60;99.90
22738;DHT22;11536;50.860;4.286;2023-06-22T12:15:14;19.60;99.90
22738;DHT22;11536;50.860;4.286;2023-06-22T12:17:42;19.60;99.90
22738;DHT22;11536;50.860;4.286;2023-06-22T12:20:08;19.70;99.90
22738;DHT22;11536;50.860;4.286;2023-06-22T12:22:34;19.70;99.90
22738;DHT22;11536;50.860;4.286;2023-06-22T12:25:01;19.70;99.90
22738;DHT22;11536;50.860;4.286;2023-06-22T12:27:27;19.70;99.90
22738;DHT22;11536;50.860;4.286;2023-06-22T12:29:52;19.80;99.90
22738;DHT22;11536;50.860;4.286;2023-06-22T12:32:18;19.80;99.90
22738;DHT22;11536;50.860;4.286;2023-06-22T12:34:44;19.80;99.90
22738;DHT22;11536;50.860;4.286;2023-06-22T12:37:10;19.80;99.90
22738;DHT22;11536;50.860;4.286;2023-06-22T12:39:36;19.80;99.90
22738;DHT22;11536;50.860;4.286;2023-06-22T12:42:02;19.90;99.90
22738;DHT22;11536;50.860;4.286;2023-06-22T12:44:28;19.90;99.90
22738;DHT22;11536;50.860;4.286;2023-06-22T12:46:53;19.90;99.90
22738;DHT22;11536;50.860;4.286;2023-06-22T12:49:19;19.90;99.90
22738;DHT22;11536;50.860;4.286;2023-06-22T12:51:45;19.90;99.90
22738;DHT22;11536;50.860;4.286;2023-06-22T12:54:11;19.90;99.90
22738;DHT22;11536;50.860;4.286;2023-06-22T12:56:37;19.90;99.90
22738;DHT22;11536;50.860;4.286;2023-06-22T12:59:04;19.90;99.90
22738;DHT22;11536;50.860;4.286;2023-06-22T13:01:30;19.90;99.90
22738;DHT22;11536;50.860;4.286;2023-06-22T13:03:57;19.90;99.90
22738;DHT22;11536;50.860;4.286;2023-06-22T13:06:23;19.90;99.90
22738;DHT22;11536;50.860;4.286;2023-06-22T13:08:48;19.90;99.90
22738;DHT22;11536;50.860;4.286;2023-06-22T13:11:14;19.80;99.90
22738;DHT22;11536;50.860;4.286;2023-06-22T13:13:40;19.80;99.90
22738;DHT22;11536;50.860;4.286;2023-06-22T13:16:06;19.80;99.90
22738;DHT22;11536;50.860;4.286;2023-06-22T13:18:31;19.80;99.90
22738;DHT22;11536;50.860;4.286;2023-06-22T13:20:58;19.80;99.90
22738;DHT22;11536;50.860;4.286;2023-06-22T13:23:25;19.80;99.90
22738;DHT22;11536;50.860;4.286;2023-06-22T13:25:51;19.80;99.90
22738;DHT22;11536;50.860;4.286;2023-06-22T13:28:16;19.80;99.90
22738;DHT22;11536;50.860;4.286;2023-06-22T13:30:42;19.80;99.90
22738;DHT22;11536;50.860;4.286;2023-06-22T13:33:11;19.80;99.90
22738;DHT22;11536;50.860;4.286;2023-06-22T13:35:36;19.70;99.90
22738;DHT22;11536;50.860;4.286;2023-06-22T13:38:03;19.70;99.90
22738;DHT22;11536;50.860;4.286;2023-06-22T13:40:29;19.70;99.90
22738;DHT22;11536;50.860;4.286;2023-06-22T13:42:55;19.70;99.90
22738;DHT22;11536;50.860;4.286;2023-06-22T13:45:21;19.70;99.90
22738;DHT22;11536;50.860;4.286;2023-06-22T13:47:46;19.70;99.90
22738;DHT22;11536;50.860;4.286;2023-06-22T13:50:12;19.70;99.90
22738;DHT22;11536;50.860;4.286;2023-06-22T13:52:38;19.60;99.90
22738;DHT22;11536;50.860;4.286;2023-06-22T13:55:05;19.60;99.90
22738;DHT22;11536;50.860;4.286;2023-06-22T13:57:32;19.50;99.90
22738;DHT22;11536;50.860;4.286;2023-06-22T13:59:58;19.50;99.90
22738;DHT22;11536;50.860;4.286;2023-06-22T14:02:23;19.50;99.90
22738;DHT22;11536;50.860;4.286;2023-06-22T14:04:49;19.50;99.90
22738;DHT22;11536;50.860;4.286;2023-06-22T14:07:14;19.50;99.90
22738;DHT22;11536;50.860;4.286;2023-06-22T14:09:40;19.50;99.90
22738;DHT22;11536;50.860;4.286;2023-06-22T14:12:07;19.50;99.90
22738;DHT22;11536;50.860;4.286;2023-06-22T14:14:33;19.40;99.90
22738;DHT22;11536;50.860;4.286;2023-06-22T14:16:59;19.40;99.90
22738;DHT22;11536;50.860;4.286;2023-06-22T14:19:25;19.40;99.90
22738;DHT22;11536;50.860;4.286;2023-06-22T14:21:51;19.40;99.90
22738;DHT22;11536;50.860;4.286;2023-06-22T14:24:16;19.40;99.90
22738;DHT22;11536;50.860;4.286;2023-06-22T14:26:42;19.40;99.90
22738;DHT22;11536;50.860;4.286;2023-06-22T14:29:08;19.40;99.90
22738;DHT22;11536;50.860;4.286;2023-06-22T14:31:33;19.40;99.90
22738;DHT22;11536;50.860;4.286;2023-06-22T14:33:59;19.40;99.90
22738;DHT22;11536;50.860;4.286;2023-06-22T14:36:25;19.30;99.90
22738;DHT22;11536;50.860;4.286;2023-06-22T14:38:51;19.30;99.90
22738;DHT22;11536;50.860;4.286;2023-06-22T14:41:17;19.40;99.90
22738;DHT22;11536;50.860;4.286;2023-06-22T14:43:47;19.40;99.90
22738;DHT22;11536;50.860;4.286;2023-06-22T14:46:14;19.40;99.90
22738;DHT22;11536;50.860;4.286;2023-06-22T14:48:41;19.40;99.90
22738;DHT22;11536;50.860;4.286;2023-06-22T14:51:07;19.40;99.90
22738;DHT22;11536;50.860;4.286;2023-06-22T14:53:33;19.50;99.90
22738;DHT22;11536;50.860;4.286;2023-06-22T14:55:58;19.50;99.90
22738;DHT22;11536;50.860;4.286;2023-06-22T14:58:26;19.50;99.90
22738;DHT22;11536;50.860;4.286;2023-06-22T15:00:52;19.60;99.90
22738;DHT22;11536;50.860;4.286;2023-06-22T15:03:18;19.60;99.90
22738;DHT22;11536;50.860;4.286;2023-06-22T15:05:47;19.60;99.90
22738;DHT22;11536;50.860;4.286;2023-06-22T15:08:13;19.70;99.90
22738;DHT22;11536;50.860;4.286;2023-06-22T15:10:38;19.60;99.90
22738;DHT22;11536;50.860;4.286;2023-06-22T15:13:04;19.60;99.90
22738;DHT22;11536;50.860;4.286;2023-06-22T15:15:29;19.60;99.90
22738;DHT22;11536;50.860;4.286;2023-06-22T15:17:55;19.70;99.90
22738;DHT22;11536;50.860;4.286;2023-06-22T15:20:20;19.70;99.90
22738;DHT22;11536;50.860;4.286;2023-06-22T15:22:46;19.70;99.90
22738;DHT22;11536;50.860;4.286;2023-06-22T15:25:11;19.70;99.90
22738;DHT22;11536;50.860;4.286;2023-06-22T15:27:37;19.70;99.90